Time;durP1;ratioP1;P1;durP2;ratioP2;P2;SDS_P1;SDS_P2;PMS_P1;PMS_P2;Temp;Humidity;BMP_temperature;BMP_pressure;BME280_temperature;BME280_humidity;BME280_pressure;Samples;Min_cycle;Max_cycle;Signal;HPM_P1;HPM_P2
2021/09/24 00:04:35;;;;;;;24.60;14.00;;;;;;;15.58;100.00;101355.94;4959189;28;20050;-75
2021/09/24 00:07:02;;;;;;;21.58;13.30;;;;;;;15.55;100.00;101359.50;4974826;28;20468;-75
2021/09/24 00:09:28;;;;;;;22.88;14.88;;;;;;;15.54;100.00;101358.63;4968930;28;20055;-77
2021/09/24 00:11:56;;;;;;;23.27;14.25;;;;;;;15.53;100.00;101354.28;4969506;28;20051;-77
2021/09/24 00:14:22;;;;;;;22.65;13.60;;;;;;;15.49;100.00;101357.06;4961458;28;20055;-75
2021/09/24 00:16:49;;;;;;;26.20;14.90;;;;;;;15.46;100.00;101347.53;4965888;28;20047;-77
2021/09/24 00:19:15;;;;;;;25.50;14.30;;;;;;;15.44;100.00;101346.72;4974034;28;20046;-76
2021/09/24 00:21:42;;;;;;;20.05;13.52;;;;;;;15.44;100.00;101346.72;4975038;28;20054;-77
2021/09/24 00:24:08;;;;;;;24.85;15.85;;;;;;;15.44;100.00;101348.47;4971659;28;20050;-76
2021/09/24 00:26:35;;;;;;;25.13;16.27;;;;;;;15.43;100.00;101350.22;4973530;28;20051;-76
2021/09/24 00:29:02;;;;;;;26.55;15.35;;;;;;;15.43;100.00;101347.63;4974605;28;20078;-77
2021/09/24 00:31:29;;;;;;;26.83;15.02;;;;;;;15.39;100.00;101344.22;4971286;28;20106;-76
2021/09/24 00:33:55;;;;;;;32.22;16.33;;;;;;;15.40;100.00;101347.72;4973364;28;20054;-76
2021/09/24 00:36:22;;;;;;;24.38;14.00;;;;;;;15.42;100.00;101338.06;4968596;28;20439;-74
2021/09/24 00:38:48;;;;;;;22.17;13.27;;;;;;;15.41;100.00;101344.19;4968885;28;20101;-76
2021/09/24 00:41:15;;;;;;;21.10;13.43;;;;;;;15.42;100.00;101339.81;4966560;28;20447;-76
2021/09/24 00:43:41;;;;;;;24.13;13.82;;;;;;;15.41;100.00;101340.69;4970272;28;20517;-76
2021/09/24 00:46:09;;;;;;;26.58;13.68;;;;;;;15.41;100.00;101335.47;4961692;28;20054;-76
2021/09/24 00:48:35;;;;;;;21.98;14.23;;;;;;;15.40;100.00;101337.25;4967533;28;20549;-76
2021/09/24 00:51:02;;;;;;;23.15;12.73;;;;;;;15.43;100.00;101333.66;4969861;28;20051;-76
2021/09/24 00:53:30;;;;;;;28.08;12.85;;;;;;;15.42;100.00;101331.94;4970199;28;20054;-77
2021/09/24 00:55:57;;;;;;;19.50;11.88;;;;;;;15.40;100.00;101332.00;4965524;28;20175;-77
2021/09/24 00:58:23;;;;;;;18.23;12.48;;;;;;;15.39;100.00;101327.66;4966239;28;20050;-77
2021/09/24 01:00:50;;;;;;;20.88;11.18;;;;;;;15.42;100.00;101324.94;4969228;28;20461;-77
2021/09/24 01:03:17;;;;;;;20.67;11.95;;;;;;;15.35;100.00;101334.75;4974047;28;20093;-75
2021/09/24 01:05:44;;;;;;;19.25;11.05;;;;;;;15.35;100.00;101323.41;4972723;28;20038;-77
2021/09/24 01:08:10;;;;;;;18.48;10.70;;;;;;;15.30;100.00;101320.91;4971523;28;20055;-76
2021/09/24 01:10:37;;;;;;;18.30;10.10;;;;;;;15.29;100.00;101319.19;4970037;28;20059;-76
2021/09/24 01:13:03;;;;;;;18.95;10.65;;;;;;;15.29;100.00;101323.59;4973698;28;20046;-75
2021/09/24 01:15:30;;;;;;;16.58;9.10;;;;;;;15.30;100.00;101320.06;4964593;28;20454;-76
2021/09/24 01:17:56;;;;;;;18.70;10.68;;;;;;;15.23;100.00;101325.47;4968516;28;20494;-78
2021/09/24 01:20:24;;;;;;;19.75;9.20;;;;;;;15.25;100.00;101317.59;4970039;28;20058;-76
2021/09/24 01:22:53;;;;;;;17.98;9.85;;;;;;;15.29;100.00;101318.34;4973254;28;20434;-76
2021/09/24 01:25:21;;;;;;;20.23;9.90;;;;;;;15.29;100.00;101321.81;4965958;28;20039;-77
2021/09/24 01:27:47;;;;;;;19.92;10.48;;;;;;;15.28;100.00;101316.63;4961600;28;20093;-77
2021/09/24 01:30:15;;;;;;;18.38;10.20;;;;;;;15.27;100.00;101317.53;4962438;28;20462;-77
2021/09/24 01:32:43;;;;;;;19.27;10.73;;;;;;;15.29;100.00;101320.97;4973481;28;20414;-77
2021/09/24 01:35:10;;;;;;;18.48;10.77;;;;;;;15.29;100.00;101319.19;4973490;28;20050;-76
2021/09/24 01:37:38;;;;;;;20.42;11.07;;;;;;;15.30;100.00;101314.81;4972864;28;20055;-77
2021/09/24 01:40:11;;;;;;;18.08;10.70;;;;;;;15.31;100.00;101321.78;4967680;28;20089;-78
2021/09/24 01:42:38;;;;;;;19.85;11.90;;;;;;;15.33;100.00;101314.72;4955507;28;20043;-78
2021/09/24 01:45:06;;;;;;;19.75;12.88;;;;;;;15.30;100.00;101313.03;4970124;28;20070;-77
2021/09/24 01:47:32;;;;;;;22.13;13.13;;;;;;;15.29;100.00;101319.19;4966017;28;20054;-77
2021/09/24 01:49:59;;;;;;;21.42;13.55;;;;;;;15.29;100.00;101315.72;4971799;28;20046;-77
2021/09/24 01:52:26;;;;;;;23.20;13.55;;;;;;;15.25;100.00;101312.34;4973155;28;20113;-77
2021/09/24 01:54:52;;;;;;;28.17;15.48;;;;;;;15.29;100.00;101310.47;4973296;28;20047;-77
2021/09/24 01:57:20;;;;;;;26.30;16.08;;;;;;;15.28;100.00;101317.47;4972913;28;20051;-77
2021/09/24 01:59:46;;;;;;;26.83;17.40;;;;;;;15.26;100.00;101307.94;4960525;28;20535;-76
2021/09/24 02:02:13;;;;;;;29.17;17.85;;;;;;;15.26;100.00;101303.56;4968075;28;20046;-77
2021/09/24 02:04:39;;;;;;;28.27;17.15;;;;;;;15.27;100.00;101304.41;4966778;28;20519;-77
2021/09/24 02:07:06;;;;;;;28.23;17.40;;;;;;;15.28;100.00;101311.38;4972752;28;20418;-75
2021/09/24 02:09:33;;;;;;;28.05;17.85;;;;;;;15.28;100.00;101308.75;4971734;28;20101;-77
2021/09/24 02:11:59;;;;;;;32.40;19.60;;;;;;;15.28;100.00;101312.22;4966316;28;20497;-76
2021/09/24 02:14:27;;;;;;;31.65;17.38;;;;;;;15.30;100.00;101310.44;4964244;28;20051;-76
2021/09/24 02:16:54;;;;;;;31.38;18.77;;;;;;;15.28;100.00;101306.97;4969053;28;20055;-76
2021/09/24 02:19:20;;;;;;;30.15;18.90;;;;;;;15.30;100.00;101304.34;4971630;28;20054;-77
2021/09/24 02:21:47;;;;;;;28.75;18.27;;;;;;;15.30;100.00;101312.19;4973270;28;20055;-76
2021/09/24 02:24:14;;;;;;;24.70;17.75;;;;;;;15.30;100.00;101302.56;4972923;28;20051;-75
2021/09/24 02:26:40;;;;;;;29.67;18.55;;;;;;;15.30;100.00;101305.19;4972659;28;20054;-77
2021/09/24 02:29:07;;;;;;;26.55;18.17;;;;;;;15.30;100.00;101299.94;4963900;28;20058;-75
2021/09/24 02:31:35;;;;;;;26.98;17.55;;;;;;;15.31;100.00;101306.06;4962776;28;20046;-77
2021/09/24 02:34:01;;;;;;;30.92;20.08;;;;;;;15.30;100.00;101304.34;4969501;28;20051;-76
2021/09/24 02:36:27;;;;;;;25.45;18.50;;;;;;;15.31;100.00;101303.44;4972695;28;20046;-77
2021/09/24 02:38:54;;;;;;;29.50;18.55;;;;;;;15.31;100.00;101295.56;4971909;28;20047;-76
2021/09/24 02:41:20;;;;;;;34.55;18.92;;;;;;;15.32;100.00;101300.75;4969736;28;20481;-77
2021/09/24 02:43:47;;;;;;;25.35;19.33;;;;;;;15.32;100.00;101302.53;4975662;28;20046;-77
2021/09/24 02:46:13;;;;;;;34.95;19.90;;;;;;;15.31;100.00;101300.81;4971762;28;20054;-76
2021/09/24 02:48:41;;;;;;;27.92;18.63;;;;;;;15.35;100.00;101302.41;4965031;28;20053;-77
2021/09/24 02:51:08;;;;;;;32.55;20.23;;;;;;;15.33;100.00;101294.63;4966069;28;20054;-76
2021/09/24 02:53:34;;;;;;;27.85;19.38;;;;;;;15.31;100.00;101295.56;4971939;28;20494;-78
2021/09/24 02:56:00;;;;;;;31.40;19.15;;;;;;;15.32;100.00;101297.28;4965831;28;20051;-77
2021/09/24 02:58:27;;;;;;;29.38;18.60;;;;;;;15.31;100.00;101295.56;4973112;28;20097;-78
2021/09/24 03:00:53;;;;;;;35.28;20.33;;;;;;;15.31;100.00;101292.97;4965791;28;20051;-77
2021/09/24 03:03:20;;;;;;;36.38;20.40;;;;;;;15.33;100.00;101296.38;4970849;28;20061;-77
2021/09/24 03:05:48;;;;;;;28.98;18.60;;;;;;;15.32;100.00;101295.53;4973487;28;20054;-78
2021/09/24 03:08:14;;;;;;;27.02;19.17;;;;;;;15.27;100.00;101289.56;4963022;28;20507;-76
2021/09/24 03:10:41;;;;;;;25.70;17.90;;;;;;;15.27;100.00;101294.81;4962687;28;20047;-77
2021/09/24 03:13:07;;;;;;;29.60;19.55;;;;;;;15.26;100.00;101292.22;4972209;28;20070;-78
2021/09/24 03:15:34;;;;;;;34.35;20.13;;;;;;;15.26;100.00;101298.34;4975723;28;20124;-78
2021/09/24 03:18:01;;;;;;;28.23;18.65;;;;;;;15.29;100.00;101287.75;4975023;28;20042;-78
2021/09/24 03:20:28;;;;;;;34.33;20.58;;;;;;;15.23;100.00;101296.63;4971494;28;20042;-78
2021/09/24 03:22:56;;;;;;;29.52;19.30;;;;;;;15.22;100.00;101286.22;4959702;28;20055;-76
2021/09/24 03:25:22;;;;;;;36.17;20.55;;;;;;;15.21;100.00;101287.13;4969742;28;20065;-76
2021/09/24 03:27:50;;;;;;;32.33;18.92;;;;;;;15.19;100.00;101286.28;4968028;28;20051;-76
2021/09/24 03:30:17;;;;;;;29.30;18.25;;;;;;;15.16;100.00;101291.66;4967065;28;20047;-74
2021/09/24 03:32:44;;;;;;;26.90;18.35;;;;;;;15.15;100.00;101300.41;4963824;28;20043;-75
2021/09/24 03:35:11;;;;;;;30.05;19.00;;;;;;;15.14;100.00;101294.28;4972993;28;20502;-74
2021/09/24 03:37:38;;;;;;;34.53;18.85;;;;;;;15.13;100.00;101292.56;4966982;28;20055;-75
2021/09/24 03:40:07;;;;;;;30.10;17.95;;;;;;;15.14;100.00;101298.69;4970719;28;20055;-76
2021/09/24 03:42:34;;;;;;;38.75;20.55;;;;;;;15.14;100.00;101296.06;4970161;28;20513;-76
2021/09/24 03:45:00;;;;;;;41.22;21.08;;;;;;;15.18;100.00;101306.41;4966099;28;20058;-77
2021/09/24 03:47:27;;;;;;;39.17;19.65;;;;;;;15.23;100.00;101298.41;4971691;28;20047;-77
2021/09/24 03:49:53;;;;;;;37.28;21.30;;;;;;;15.20;100.00;101293.25;4968480;28;20047;-77
2021/09/24 03:52:19;;;;;;;44.55;20.27;;;;;;;15.21;100.00;101310.69;4974383;28;20050;-75
2021/09/24 03:54:46;;;;;;;49.72;22.13;;;;;;;15.21;100.00;101292.34;4968382;28;20051;-76
2021/09/24 03:57:14;;;;;;;48.83;21.52;;;;;;;15.25;100.00;101301.84;4965070;28;20051;-78
2021/09/24 03:59:40;;;;;;;44.53;24.08;;;;;;;15.22;100.00;101302.78;4973736;28;20051;-77
2021/09/24 04:02:07;;;;;;;50.17;24.50;;;;;;;15.18;100.00;101303.78;4972924;28;20057;-77
2021/09/24 04:04:33;;;;;;;55.67;26.30;;;;;;;15.19;100.00;101302.91;4966335;28;20509;-78
2021/09/24 04:06:59;;;;;;;64.70;29.08;;;;;;;15.26;100.00;101300.06;4967869;28;20043;-75
2021/09/24 04:09:26;;;;;;;64.53;28.58;;;;;;;15.16;100.00;101296.88;4965034;28;20050;-77
2021/09/24 04:11:52;;;;;;;75.88;32.63;;;;;;;15.08;100.00;101300.56;4968707;28;20438;-77
2021/09/24 04:14:20;;;;;;;69.10;30.85;;;;;;;15.09;100.00;101301.44;4965673;28;20046;-77
2021/09/24 04:16:47;;;;;;;76.43;34.42;;;;;;;15.13;100.00;101300.44;4969798;28;20434;-77
2021/09/24 04:19:13;;;;;;;87.15;35.00;;;;;;;15.10;100.00;101305.78;4966967;28;20043;-77
2021/09/24 04:21:40;;;;;;;83.10;36.28;;;;;;;15.16;100.00;101307.38;4974420;28;20051;-77
2021/09/24 04:24:06;;;;;;;86.53;36.53;;;;;;;15.15;100.00;101301.25;4972738;28;20050;-77
2021/09/24 04:26:33;;;;;;;89.30;40.45;;;;;;;15.12;100.00;101300.50;4965043;28;20451;-77
2021/09/24 04:29:00;;;;;;;84.50;38.60;;;;;;;15.09;100.00;101304.06;4974020;28;20103;-77
2021/09/24 04:31:28;;;;;;;96.25;39.33;;;;;;;15.08;100.00;101300.56;4970707;28;20101;-76
2021/09/24 04:33:55;;;;;;;87.88;39.20;;;;;;;15.09;100.00;101296.22;4966722;28;20061;-77
2021/09/24 04:36:21;;;;;;;90.60;38.90;;;;;;;15.10;100.00;101299.66;4969732;28;20047;-75
2021/09/24 04:38:47;;;;;;;86.57;40.30;;;;;;;15.13;100.00;101305.69;4965744;28;20062;-74
2021/09/24 04:41:14;;;;;;;89.20;39.28;;;;;;;15.19;100.00;101302.03;4961652;28;20051;-74
2021/09/24 04:43:41;;;;;;;89.18;38.65;;;;;;;15.14;100.00;101301.31;4972727;28;20043;-75
2021/09/24 04:46:07;;;;;;;89.25;37.78;;;;;;;15.16;100.00;101302.13;4966128;28;20047;-74
2021/09/24 04:48:35;;;;;;;93.95;39.13;;;;;;;15.17;100.00;101302.06;4962769;28;20574;-75
2021/09/24 04:51:03;;;;;;;88.07;39.65;;;;;;;15.19;100.00;101305.50;4970644;28;20054;-75
2021/09/24 04:53:30;;;;;;;87.95;40.88;;;;;;;15.11;100.00;101304.88;4969823;28;20078;-76
2021/09/24 04:55:57;;;;;;;91.18;40.13;;;;;;;15.14;100.00;101298.69;4966410;28;20050;-75
2021/09/24 04:58:23;;;;;;;83.93;40.40;;;;;;;15.13;100.00;101295.19;4958042;28;20140;-75
2021/09/24 05:00:50;;;;;;;79.85;40.20;;;;;;;15.19;100.00;101305.50;4962226;28;20047;-74
2021/09/24 05:03:16;;;;;;;85.47;39.90;;;;;;;15.13;100.00;101308.28;4965937;28;20046;-77
2021/09/24 05:05:45;;;;;;;91.10;40.75;;;;;;;15.12;100.00;101309.22;4965324;28;20050;-76
2021/09/24 05:08:11;;;;;;;84.90;40.92;;;;;;;15.13;100.00;101303.06;4960306;28;20043;-74
2021/09/24 05:10:38;;;;;;;82.90;41.15;;;;;;;15.08;100.00;101300.56;4963838;28;20078;-73
2021/09/24 05:13:05;;;;;;;81.40;40.35;;;;;;;15.14;100.00;101301.31;4962109;28;20057;-75
2021/09/24 05:15:32;;;;;;;81.30;39.85;;;;;;;15.14;100.00;101298.69;4972593;28;20194;-74
2021/09/24 05:17:59;;;;;;;77.45;39.55;;;;;;;15.17;100.00;101296.00;4966294;28;20054;-74
2021/09/24 05:20:26;;;;;;;68.35;37.00;;;;;;;15.18;100.00;101295.94;4967969;28;20051;-75
2021/09/24 05:22:54;;;;;;;76.68;38.50;;;;;;;15.16;100.00;101292.50;4968968;28;20054;-74
2021/09/24 05:25:21;;;;;;;75.10;38.30;;;;;;;15.16;100.00;101294.28;4964605;28;20061;-75
2021/09/24 05:27:48;;;;;;;67.68;37.70;;;;;;;15.16;100.00;101295.13;4957273;28;20055;-74
2021/09/24 05:30:15;;;;;;;69.97;38.08;;;;;;;15.17;100.00;101298.63;4962439;28;20051;-75
2021/09/24 05:32:41;;;;;;;69.97;37.45;;;;;;;15.20;100.00;101295.88;4959524;28;20053;-76
2021/09/24 05:35:09;;;;;;;75.47;37.42;;;;;;;15.22;100.00;101289.69;4963627;28;20051;-75
2021/09/24 05:37:36;;;;;;;65.13;35.15;;;;;;;15.19;100.00;101294.16;4969495;28;20063;-74
2021/09/24 05:40:05;;;;;;;68.65;35.97;;;;;;;15.09;100.00;101298.81;4965580;28;20058;-73
2021/09/24 05:42:31;;;;;;;70.68;38.47;;;;;;;15.01;100.00;101300.81;4968103;28;20047;-75
2021/09/24 05:44:58;;;;;;;64.10;34.58;;;;;;;14.96;100.00;101303.56;4960494;28;20047;-76
2021/09/24 05:47:24;;;;;;;59.30;30.70;;;;;;;15.04;100.00;101305.94;4958969;28;20042;-75
2021/09/24 05:49:51;;;;;;;61.70;32.80;;;;;;;15.11;100.00;101298.78;4964953;28;20051;-75
2021/09/24 05:52:18;;;;;;;67.47;35.30;;;;;;;15.19;100.00;101302.91;4967862;28;20437;-75
2021/09/24 05:54:44;;;;;;;52.72;30.52;;;;;;;15.13;100.00;101296.97;4957293;28;20054;-75
2021/09/24 05:57:12;;;;;;;63.95;31.15;;;;;;;15.08;100.00;101304.97;4964622;28;20047;-73
2021/09/24 05:59:38;;;;;;;49.10;29.95;;;;;;;15.01;100.00;101308.69;4966476;28;20062;-73
2021/09/24 06:02:05;;;;;;;49.28;28.80;;;;;;;14.90;100.00;101307.22;4964252;28;20062;-74
2021/09/24 06:04:32;;;;;;;50.42;29.52;;;;;;;14.93;100.00;101301.03;4968709;28;20070;-74
2021/09/24 06:06:58;;;;;;;51.10;29.98;;;;;;;14.93;100.00;101314.13;4969550;28;20050;-73
2021/09/24 06:09:25;;;;;;;52.90;29.80;;;;;;;14.92;100.00;101308.00;4972241;28;20054;-74
2021/09/24 06:11:51;;;;;;;49.78;29.58;;;;;;;15.00;100.00;101304.34;4969524;28;20055;-75
2021/09/24 06:14:19;;;;;;;47.28;28.33;;;;;;;14.98;100.00;101304.34;4970538;28;20054;-74
2021/09/24 06:16:45;;;;;;;49.80;28.33;;;;;;;15.07;100.00;101313.72;4967071;28;20062;-75
2021/09/24 06:19:12;;;;;;;55.78;29.98;;;;;;;14.98;100.00;101309.59;4964462;28;20051;-74
2021/09/24 06:21:40;;;;;;;47.17;28.27;;;;;;;15.01;100.00;101308.69;4969809;28;20051;-76
2021/09/24 06:24:08;;;;;;;54.17;30.02;;;;;;;14.95;100.00;101300.97;4967339;28;20102;-75
2021/09/24 06:26:34;;;;;;;59.33;30.73;;;;;;;14.90;100.00;101306.34;4962968;28;20047;-74
2021/09/24 06:29:01;;;;;;;57.00;29.23;;;;;;;14.86;100.00;101300.34;4969873;28;20047;-73
2021/09/24 06:31:29;;;;;;;47.65;27.40;;;;;;;14.88;100.00;101301.16;4963626;28;20066;-72
2021/09/24 06:33:56;;;;;;;51.50;28.88;;;;;;;14.87;100.00;101306.44;4970067;28;20046;-71
2021/09/24 06:36:24;;;;;;;44.95;27.65;;;;;;;14.92;100.00;101305.38;4963522;28;20145;-74
2021/09/24 06:38:50;;;;;;;41.75;25.95;;;;;;;14.88;100.00;101314.25;4960521;28;20050;-75
2021/09/24 06:41:17;;;;;;;40.40;25.33;;;;;;;15.01;100.00;101314.75;4958414;28;20045;-73
2021/09/24 06:43:43;;;;;;;38.92;24.60;;;;;;;15.01;100.00;101324.41;4960112;28;21050;-74
2021/09/24 06:46:10;;;;;;;39.55;23.65;;;;;;;15.04;100.00;101313.81;4959581;28;20051;-74
2021/09/24 06:48:38;;;;;;;31.52;22.70;;;;;;;15.03;100.00;101315.59;4964986;28;20046;-73
2021/09/24 06:51:04;;;;;;;32.63;20.63;;;;;;;15.06;100.00;101314.63;4958231;28;20047;-71
2021/09/24 06:53:31;;;;;;;35.47;21.85;;;;;;;15.01;100.00;101319.16;4967785;28;20467;-72
2021/09/24 06:55:58;;;;;;;35.35;23.20;;;;;;;14.99;100.00;101320.94;4962687;28;20047;-74
2021/09/24 06:58:25;;;;;;;37.00;23.52;;;;;;;15.00;100.00;101320.91;4961225;28;20552;-74
2021/09/24 07:00:51;;;;;;;40.40;22.80;;;;;;;15.04;100.00;101313.81;4969975;28;20055;-74
2021/09/24 07:03:18;;;;;;;32.00;20.33;;;;;;;15.07;100.00;101314.56;4970967;28;20058;-72
2021/09/24 07:05:45;;;;;;;29.17;19.52;;;;;;;15.07;100.00;101326.81;4967214;28;20065;-74
2021/09/24 07:08:12;;;;;;;29.10;17.75;;;;;;;15.10;100.00;101321.50;4964749;28;20651;-73
2021/09/24 07:10:38;;;;;;;29.63;18.95;;;;;;;15.05;100.00;101320.75;4964737;28;20051;-74
2021/09/24 07:13:05;;;;;;;32.28;18.88;;;;;;;15.01;100.00;101324.41;4968734;28;20426;-74
2021/09/24 07:15:31;;;;;;;28.23;18.92;;;;;;;15.05;100.00;101323.38;4966945;28;20050;-73
2021/09/24 07:17:58;;;;;;;27.88;18.98;;;;;;;15.03;100.00;101322.56;4968021;28;20050;-74
2021/09/24 07:20:24;;;;;;;30.90;19.63;;;;;;;14.97;100.00;101328.00;4965302;28;20039;-74
2021/09/24 07:22:52;;;;;;;26.92;17.92;;;;;;;15.04;100.00;101326.91;4966264;28;20062;-74
2021/09/24 07:25:19;;;;;;;30.73;20.02;;;;;;;15.02;100.00;101331.34;4969060;28;20047;-74
2021/09/24 07:27:45;;;;;;;32.70;20.08;;;;;;;15.04;100.00;101326.91;4967691;28;20046;-74
2021/09/24 07:30:12;;;;;;;30.73;19.13;;;;;;;15.06;100.00;101325.09;4974272;28;20105;-72
2021/09/24 07:32:41;;;;;;;30.45;20.92;;;;;;;15.04;100.00;101329.53;4975321;28;20128;-73
2021/09/24 07:35:08;;;;;;;31.67;20.17;;;;;;;15.14;100.00;101333.59;4968265;28;20051;-73
2021/09/24 07:37:35;;;;;;;34.33;20.50;;;;;;;15.14;100.00;101327.50;4971301;28;20047;-73
2021/09/24 07:40:03;;;;;;;32.28;19.77;;;;;;;15.16;100.00;101334.41;4968737;28;20058;-74
2021/09/24 07:42:29;;;;;;;30.40;20.17;;;;;;;15.21;100.00;101337.78;4972421;28;20044;-73
2021/09/24 07:44:56;;;;;;;31.35;20.77;;;;;;;15.11;100.00;101340.69;4963126;28;20102;-72
2021/09/24 07:47:22;;;;;;;34.03;19.60;;;;;;;15.13;100.00;101344.13;4968436;28;20151;-74
2021/09/24 07:49:49;;;;;;;34.92;20.10;;;;;;;15.17;100.00;101338.75;4971245;28;20054;-74
2021/09/24 07:52:15;;;;;;;34.20;20.50;;;;;;;15.09;100.00;101343.38;4969106;28;20055;-75
2021/09/24 07:54:42;;;;;;;34.08;19.30;;;;;;;15.15;100.00;101344.97;4966214;28;20043;-74
2021/09/24 07:57:10;;;;;;;33.83;20.50;;;;;;;15.20;100.00;101348.28;4956959;28;20055;-74
2021/09/24 07:59:36;;;;;;;31.20;20.05;;;;;;;15.26;100.00;101345.50;4961729;28;20062;-74
2021/09/24 08:02:04;;;;;;;30.15;19.10;;;;;;;15.32;100.00;101341.84;4974862;28;20054;-72
2021/09/24 08:04:30;;;;;;;31.27;20.00;;;;;;;15.26;100.00;101344.63;4967967;28;20433;-74
2021/09/24 08:06:57;;;;;;;34.50;19.40;;;;;;;15.22;100.00;101339.47;4967187;28;20418;-72
2021/09/24 08:09:23;;;;;;;30.35;19.52;;;;;;;15.22;100.00;101349.09;4969326;28;20453;-73
2021/09/24 08:11:50;;;;;;;30.90;19.63;;;;;;;15.31;100.00;101348.00;4969940;28;20599;-74
2021/09/24 08:14:18;;;;;;;30.67;19.63;;;;;;;15.27;100.00;101352.47;4963767;28;20051;-74
2021/09/24 08:16:44;;;;;;;28.33;18.58;;;;;;;15.30;100.00;101349.75;4963506;28;20672;-71
2021/09/24 08:19:11;;;;;;;27.77;18.75;;;;;;;15.33;100.00;101343.53;4968777;28;20047;-73
2021/09/24 08:21:37;;;;;;;27.98;19.00;;;;;;;15.35;100.00;101349.59;4969231;28;20050;-75
2021/09/24 08:24:05;;;;;;;26.65;17.20;;;;;;;15.41;100.00;101356.44;4967505;28;20406;-74
2021/09/24 08:26:31;;;;;;;30.63;17.45;;;;;;;15.45;100.00;101356.28;4970680;28;20051;-74
2021/09/24 08:28:57;;;;;;;25.88;16.17;;;;;;;15.47;100.00;101356.28;4960061;28;20101;-74
2021/09/24 08:31:25;;;;;;;27.80;16.73;;;;;;;15.48;100.00;101361.47;4969647;28;20081;-74
2021/09/24 08:33:52;;;;;;;30.52;17.52;;;;;;;15.51;100.00;101358.75;4969757;28;20058;-75
2021/09/24 08:36:18;;;;;;;22.45;14.73;;;;;;;15.58;100.00;101354.16;4971750;28;20051;-74
2021/09/24 08:38:45;;;;;;;23.17;16.02;;;;;;;15.70;100.00;101360.81;4967700;28;20050;-73
2021/09/24 08:41:12;;;;;;;24.15;16.15;;;;;;;15.62;100.00;101357.56;4971303;28;20058;-75
2021/09/24 08:43:39;;;;;;;25.42;14.90;;;;;;;15.61;100.00;101364.56;4965577;28;20046;-73
2021/09/24 08:46:06;;;;;;;27.15;15.10;;;;;;;15.63;100.00;101359.25;4969919;28;20058;-73
2021/09/24 08:48:35;;;;;;;25.15;15.52;;;;;;;15.69;100.00;101352.06;4968081;28;20057;-74
2021/09/24 08:51:02;;;;;;;23.30;15.35;;;;;;;15.68;100.00;101357.38;4970332;28;20078;-75
2021/09/24 08:53:28;;;;;;;25.63;15.85;;;;;;;15.72;100.00;101361.63;4966471;28;20478;-74
2021/09/24 08:55:54;;;;;;;25.67;15.48;;;;;;;15.80;100.00;101364.00;4961453;28;20522;-74
2021/09/24 08:58:21;;;;;;;23.85;15.27;;;;;;;15.81;100.00;101356.09;4968825;28;20419;-74
2021/09/24 09:00:47;;;;;;;25.00;17.52;;;;;;;15.79;100.00;101359.66;4966761;28;20141;-73
2021/09/24 09:03:18;;;;;;;26.90;17.25;;;;;;;15.89;100.00;101357.66;4962691;28;20047;-73
2021/09/24 09:05:47;;;;;;;25.58;16.60;;;;;;;15.97;100.00;101350.38;4968701;28;20046;-72
2021/09/24 09:08:18;;;;;;;22.05;16.02;;;;;;;16.12;100.00;101347.25;4967603;28;20051;-74
2021/09/24 09:10:49;;;;;;;22.50;14.23;;;;;;;16.23;99.30;101348.66;4965389;28;20054;-74
2021/09/24 09:13:17;;;;;;;23.25;16.00;;;;;;;16.35;99.03;101344.78;4965018;28;20540;-75
2021/09/24 09:15:53;;;;;;;21.55;15.13;;;;;;;16.46;98.54;101343.50;4967314;28;20049;-74
2021/09/24 09:18:20;;;;;;;24.65;14.70;;;;;;;16.56;97.38;101345.81;4962397;28;20054;-74
2021/09/24 09:20:49;;;;;;;22.95;14.80;;;;;;;16.63;96.14;101348.19;4966711;28;20046;-74
2021/09/24 09:23:18;;;;;;;24.35;15.05;;;;;;;16.51;96.71;101339.88;4961739;28;20054;-72
2021/09/24 09:25:47;;;;;;;22.88;15.43;;;;;;;16.61;95.87;101344.75;4960537;28;20502;-74
2021/09/24 09:28:15;;;;;;;24.38;15.38;;;;;;;16.60;95.66;101347.44;4964957;28;20053;-73
2021/09/24 09:30:45;;;;;;;22.48;11.82;;;;;;;16.75;96.72;101335.53;4966427;28;20048;-74
2021/09/24 09:33:15;;;;;;;20.70;11.75;;;;;;;16.94;95.55;101334.00;4968017;28;20049;-76
2021/09/24 09:35:44;;;;;;;18.55;10.30;;;;;;;17.11;94.96;101336.91;4968819;28;20139;-76
2021/09/24 09:38:20;;;;;;;18.98;11.63;;;;;;;17.33;92.11;101335.16;4971905;28;20049;-74
2021/09/24 09:40:49;;;;;;;19.00;12.70;;;;;;;17.40;91.68;101339.31;4971735;28;20391;-74
2021/09/24 09:43:24;;;;;;;14.88;10.30;;;;;;;17.40;91.88;101326.16;4970415;28;20047;-75
2021/09/24 09:45:51;;;;;;;17.40;10.60;;;;;;;17.56;90.70;101330.81;4968142;28;20058;-76
2021/09/24 09:48:18;;;;;;;14.65;9.82;;;;;;;17.64;90.37;101333.97;4971724;28;20058;-76
2021/09/24 09:50:45;;;;;;;15.60;10.65;;;;;;;17.81;88.92;101328.06;4971430;28;20055;-77
2021/09/24 09:53:13;;;;;;;16.63;10.45;;;;;;;17.86;88.82;101331.38;4967252;28;20050;-75
2021/09/24 09:55:43;;;;;;;16.65;9.50;;;;;;;17.91;89.14;101325.06;4973105;28;20049;-76
2021/09/24 09:58:12;;;;;;;15.38;9.70;;;;;;;17.98;87.55;101330.03;4973966;28;20050;-76
2021/09/24 10:00:54;;;;;;;17.73;10.68;;;;;;;17.87;87.18;101332.22;4974575;28;20058;-77
2021/09/24 10:03:28;;;;;;;15.77;10.15;;;;;;;17.84;87.01;101327.94;4973063;28;20080;-76
2021/09/24 10:05:55;;;;;;;19.65;10.32;;;;;;;17.92;86.53;101322.34;4971388;28;20054;-77
2021/09/24 10:08:24;;;;;;;15.48;9.77;;;;;;;17.93;87.12;101324.06;4971027;28;20087;-76
2021/09/24 10:10:57;;;;;;;18.10;11.35;;;;;;;18.02;85.17;101331.63;4972082;28;20089;-76
2021/09/24 10:13:24;;;;;;;20.45;11.25;;;;;;;18.01;86.03;101319.41;4969231;28;20058;-76
2021/09/24 10:15:50;;;;;;;18.13;10.43;;;;;;;18.09;85.21;101326.13;4971497;28;20047;-76
2021/09/24 10:18:17;;;;;;;14.95;10.77;;;;;;;18.07;85.28;101323.53;4969206;28;20086;-75
2021/09/24 10:20:43;;;;;;;17.08;10.98;;;;;;;18.14;85.26;101316.22;4968010;28;20054;-76
2021/09/24 10:23:10;;;;;;;15.88;10.13;;;;;;;18.15;84.56;101325.84;4973377;28;20454;-76
2021/09/24 10:25:37;;;;;;;17.38;10.00;;;;;;;18.30;84.54;101319.09;4969253;28;20521;-76
2021/09/24 10:28:07;;;;;;;16.35;8.75;;;;;;;18.38;84.21;101321.41;4963015;28;20058;-76
2021/09/24 10:30:36;;;;;;;15.77;9.15;;;;;;;18.54;83.57;101317.16;4968003;28;20051;-76
2021/09/24 10:33:04;;;;;;;15.65;8.70;;;;;;;18.66;83.64;101318.44;4972786;28;20051;-77
2021/09/24 10:35:48;;;;;;;14.82;8.75;;;;;;;18.72;82.88;101330.44;4973398;28;20054;-78
2021/09/24 10:38:16;;;;;;;15.57;9.20;;;;;;;18.73;82.50;101321.63;4969509;28;20560;-76
2021/09/24 10:41:05;;;;;;;14.82;10.70;;;;;;;18.75;82.48;101319.78;4974422;28;20499;-76
2021/09/24 10:43:45;;;;;;;15.02;10.23;;;;;;;18.71;82.65;101315.59;4969361;28;20066;-77
2021/09/24 10:46:31;;;;;;;17.50;10.30;;;;;;;18.72;81.95;101317.28;4972645;28;20058;-76
2021/09/24 10:49:29;;;;;;;14.82;8.98;;;;;;;18.77;81.46;101313.50;4967645;28;20051;-75
2021/09/24 10:52:13;;;;;;;16.52;9.57;;;;;;;18.78;83.10;101312.59;4961367;28;20054;-75
2021/09/24 10:54:53;;;;;;;19.10;10.20;;;;;;;18.60;83.20;101314.28;4965322;28;20059;-74
2021/09/24 10:57:20;;;;;;;20.00;11.25;;;;;;;18.73;81.72;101308.44;4963770;28;20561;-75
2021/09/24 10:59:48;;;;;;;15.70;10.23;;;;;;;18.67;81.59;101304.31;4963216;28;20054;-76
2021/09/24 11:02:38;;;;;;;15.55;9.30;;;;;;;18.55;83.14;101307.50;4969823;28;20058;-73
2021/09/24 11:05:06;;;;;;;17.05;9.75;;;;;;;18.58;83.16;101305.59;4964748;28;20051;-75
2021/09/24 11:07:33;;;;;;;14.88;9.73;;;;;;;18.53;82.63;101302.28;4962536;28;20043;-74
2021/09/24 11:10:00;;;;;;;17.63;9.52;;;;;;;18.53;82.59;101310.19;4965837;28;20054;-75